Time;durP1;ratioP1;P1;durP2;ratioP2;P2;SDS_P1;SDS_P2;PMS_P1;PMS_P2;Temp;Humidity;BMP_temperature;BMP_pressure;BME280_temperature;BME280_humidity;BME280_pressure;Samples;Min_cycle;Max_cycle;Signal;HPM_P1;HPM_P2
2023/03/06 00:00:03;;;;;;;390.30;179.73;;;;;;;7.16;58.86;98986.28;319496;30;3290;-75
2023/03/06 00:00:25;;;;;;;389.98;178.65;;;;;;;7.15;59.20;98990.66;320840;30;4087;-75
2023/03/06 00:01:08;;;;;;;387.05;174.35;;;;;;;7.13;58.85;98989.84;318854;30;5082;-75
2023/03/06 00:01:18;;;;;;;382.58;165.68;;;;;;;7.08;58.91;98980.53;311016;31;4153;-76
2023/03/06 00:01:28;;;;;;;387.50;171.87;;;;;;;7.14;58.55;98988.09;306606;31;3512;-76
2023/03/06 00:01:39;;;;;;;386.42;168.90;;;;;;;7.14;58.56;98993.31;303931;32;5013;-76
2023/03/06 00:01:50;;;;;;;383.40;165.37;;;;;;;7.14;58.55;98988.09;306873;32;5499;-76
2023/03/06 00:02:00;;;;;;;379.73;159.82;;;;;;;7.16;58.29;98986.28;306278;31;4189;-76
2023/03/06 00:02:11;;;;;;;383.03;163.53;;;;;;;7.20;58.35;98993.09;308365;31;2177;-76
2023/03/06 00:02:22;;;;;;;386.15;165.57;;;;;;;7.25;58.42;98991.16;306141;31;4121;-76
2023/03/06 00:02:32;;;;;;;387.13;166.23;;;;;;;7.24;58.94;98984.25;302842;32;2869;-76
2023/03/06 00:02:43;;;;;;;384.77;171.88;;;;;;;7.25;57.95;98988.56;302941;31;4974;-76
2023/03/06 00:02:53;;;;;;;385.85;176.02;;;;;;;7.24;58.66;98989.47;310559;31;3633;-76
2023/03/06 00:03:04;;;;;;;385.10;175.63;;;;;;;7.25;58.50;98991.16;305757;31;4682;-76
2023/03/06 00:03:14;;;;;;;384.33;172.52;;;;;;;7.18;58.90;98989.69;305333;32;5761;-76
2023/03/06 00:03:26;;;;;;;382.87;168.40;;;;;;;7.20;58.88;98987.88;303473;31;5436;-76
2023/03/06 00:03:37;;;;;;;383.35;171.45;;;;;;;7.21;58.32;98989.56;304333;32;1104;-76
2023/03/06 00:03:47;;;;;;;383.80;168.68;;;;;;;7.23;58.56;98986.00;302886;32;4257;-76
2023/03/06 00:03:57;;;;;;;385.17;170.47;;;;;;;7.18;58.56;98980.13;304500;31;4350;-77
2023/03/06 00:04:08;;;;;;;382.73;167.00;;;;;;;7.19;58.76;98986.19;306657;32;4584;-76
2023/03/06 00:04:18;;;;;;;381.90;168.50;;;;;;;7.22;58.80;98988.66;307952;31;4043;-76
2023/03/06 00:04:29;;;;;;;383.80;169.00;;;;;;;7.19;58.69;98994.84;304094;32;4769;-76
2023/03/06 00:04:39;;;;;;;386.90;164.53;;;;;;;7.17;58.77;98993.19;302379;32;4195;-75
2023/03/06 00:04:50;;;;;;;388.77;166.43;;;;;;;7.17;58.92;98998.41;296678;33;2939;-76
2023/03/06 00:05:00;;;;;;;385.20;166.73;;;;;;;7.11;58.56;98983.00;294361;33;5388;-76
2023/03/06 00:05:11;;;;;;;382.15;168.52;;;;;;;7.15;58.99;98989.81;290387;33;6807;-76
2023/03/06 00:05:22;;;;;;;377.95;164.18;;;;;;;7.16;58.86;98989.75;295211;33;989;-76
2023/03/06 00:05:32;;;;;;;378.60;164.45;;;;;;;7.11;58.68;98990.81;292288;33;7332;-76
2023/03/06 00:05:43;;;;;;;379.83;160.43;;;;;;;7.05;58.77;98980.63;292722;33;6491;-76
2023/03/06 00:05:55;;;;;;;383.50;168.77;;;;;;;7.09;58.85;98988.28;290312;33;3076;-76
2023/03/06 00:06:06;;;;;;;385.02;172.90;;;;;;;7.10;58.82;98991.72;282913;34;4105;-75
2023/03/06 00:06:16;;;;;;;385.27;174.10;;;;;;;7.14;58.70;98993.31;281497;34;7767;-75
2023/03/06 00:06:27;;;;;;;381.73;165.82;;;;;;;7.14;58.70;98993.31;279392;34;4175;-74
2023/03/06 00:06:37;;;;;;;379.53;161.20;;;;;;;7.15;58.40;98989.81;284281;34;5356;-75
2023/03/06 00:06:48;;;;;;;379.83;162.90;;;;;;;7.09;58.90;98985.66;279842;34;5613;-75
2023/03/06 00:06:58;;;;;;;381.73;166.40;;;;;;;7.02;59.01;98984.19;278450;35;5978;-75
2023/03/06 00:07:08;;;;;;;380.57;165.60;;;;;;;7.03;59.43;98991.09;278321;35;3951;-75
2023/03/06 00:07:19;;;;;;;386.17;171.02;;;;;;;7.06;59.04;98995.34;275430;35;8527;-75
2023/03/06 00:07:32;;;;;;;385.20;166.40;;;;;;;7.04;58.67;98989.34;275289;35;9165;-75
2023/03/06 00:09:06;;;;;;;373.86;155.99;;;;;;;7.03;58.67;98985.91;2495916;27;20778;-75
2023/03/06 00:09:16;;;;;;;380.58;158.40;;;;;;;7.00;58.64;98991.22;351242;27;5021;-76
2023/03/06 00:09:27;;;;;;;379.50;153.30;;;;;;;7.00;58.55;98989.44;350344;28;904;-76
2023/03/06 00:09:37;;;;;;;382.42;160.80;;;;;;;6.93;58.71;98977.56;347076;28;3011;-75
2023/03/06 00:09:47;;;;;;;385.37;164.20;;;;;;;6.99;59.12;98994.72;350204;28;1419;-76
2023/03/06 00:09:58;;;;;;;384.85;167.80;;;;;;;6.97;58.64;98986.13;345499;28;4901;-75
2023/03/06 00:10:12;;;;;;;383.73;166.60;;;;;;;6.99;58.67;98990.34;347589;28;1153;-76
2023/03/06 00:10:26;;;;;;;381.85;163.00;;;;;;;7.05;58.91;98993.66;349018;28;3278;-75
2023/03/06 00:10:36;;;;;;;379.08;159.18;;;;;;;7.05;59.04;98985.84;348529;28;3096;-75
2023/03/06 00:10:47;;;;;;;381.00;162.38;;;;;;;7.09;58.94;98992.63;349981;28;2862;-76
2023/03/06 00:10:57;;;;;;;383.83;165.23;;;;;;;7.13;58.64;98994.22;344904;28;3884;-75
2023/03/06 00:11:08;;;;;;;384.50;164.77;;;;;;;7.10;58.62;98994.31;347371;28;5562;-75
2023/03/06 00:11:18;;;;;;;382.83;162.03;;;;;;;7.13;58.97;98991.63;348008;28;4367;-75
2023/03/06 00:11:28;;;;;;;380.58;160.23;;;;;;;7.12;58.26;98985.56;348782;28;2961;-75
2023/03/06 00:11:39;;;;;;;378.10;157.63;;;;;;;7.12;58.57;98990.75;347691;28;3951;-75
2023/03/06 00:11:49;;;;;;;377.80;157.90;;;;;;;7.04;58.61;98976.34;347349;28;3269;-75
2023/03/06 00:11:59;;;;;;;380.07;159.03;;;;;;;7.10;58.23;98997.78;347283;28;3321;-75
2023/03/06 00:12:10;;;;;;;381.55;161.25;;;;;;;7.09;58.38;98990.03;345957;28;3018;-75
2023/03/06 00:12:20;;;;;;;380.70;160.20;;;;;;;7.10;58.51;98991.72;345783;28;3848;-75
2023/03/06 00:12:31;;;;;;;381.35;165.38;;;;;;;7.10;58.48;98992.56;346362;28;5300;-76
2023/03/06 00:12:41;;;;;;;381.50;163.20;;;;;;;7.12;58.73;98989.91;346029;28;4632;-75
2023/03/06 00:12:52;;;;;;;384.52;171.55;;;;;;;7.12;58.52;98995.97;346964;28;3303;-75
2023/03/06 00:13:04;;;;;;;385.05;169.95;;;;;;;7.15;58.69;98989.81;343583;28;5068;-76
2023/03/06 00:13:17;;;;;;;384.23;170.38;;;;;;;7.15;58.38;98993.25;346716;28;1565;-76
2023/03/06 00:13:29;;;;;;;384.90;170.85;;;;;;;7.17;58.69;98995.81;344684;28;4582;-75
2023/03/06 00:13:39;;;;;;;386.50;175.00;;;;;;;7.17;58.45;98995.81;345855;28;4132;-75
2023/03/06 00:13:52;;;;;;;386.67;174.73;;;;;;;7.19;58.49;99000.03;342709;28;3516;-75
2023/03/06 00:14:02;;;;;;;385.55;173.20;;;;;;;7.20;58.34;98993.09;347528;28;3979;-75
2023/03/06 00:14:12;;;;;;;385.80;171.60;;;;;;;7.17;58.49;98994.03;347059;28;5028;-75
2023/03/06 00:14:23;;;;;;;386.75;172.27;;;;;;;7.20;58.19;98990.47;347601;28;1246;-75
2023/03/06 00:14:33;;;;;;;386.93;171.83;;;;;;;7.23;58.70;99003.38;346333;28;4894;-75
2023/03/06 00:14:44;;;;;;;383.63;167.47;;;;;;;7.20;58.43;98998.28;350069;28;4091;-75
2023/03/06 00:14:54;;;;;;;379.47;162.70;;;;;;;7.20;58.16;98998.28;347028;28;5094;-75
2023/03/06 00:15:05;;;;;;;374.93;155.70;;;;;;;7.25;57.93;98993.75;340449;28;3936;-75
2023/03/06 00:15:16;;;;;;;380.38;167.52;;;;;;;7.19;58.20;98991.38;337324;29;5069;-75
2023/03/06 00:15:26;;;;;;;380.60;170.53;;;;;;;7.16;58.27;99001.91;340834;28;1140;-75
2023/03/06 00:15:37;;;;;;;384.08;170.75;;;;;;;7.11;58.15;98990.81;337067;29;4543;-75
2023/03/06 00:15:47;;;;;;;384.23;168.25;;;;;;;7.12;58.38;98997.72;339713;29;1293;-75
2023/03/06 00:15:59;;;;;;;386.97;169.73;;;;;;;7.17;58.27;98998.41;338623;28;4005;-75
2023/03/06 00:16:10;;;;;;;386.95;170.70;;;;;;;7.14;58.15;98998.50;339292;29;5294;-75
2023/03/06 00:16:20;;;;;;;384.88;169.27;;;;;;;7.13;58.44;98996.81;339177;28;3961;-75
2023/03/06 00:16:31;;;;;;;381.77;166.73;;;;;;;7.18;58.04;99005.31;341099;28;3246;-75
2023/03/06 00:16:41;;;;;;;381.40;170.03;;;;;;;7.12;58.59;99000.31;337118;29;4400;-75
2023/03/06 00:16:55;;;;;;;380.73;168.33;;;;;;;7.18;58.20;99000.09;335452;29;1258;-76
2023/03/06 00:17:05;;;;;;;384.42;167.55;;;;;;;7.20;58.76;99008.69;332457;29;4331;-75
2023/03/06 00:17:15;;;;;;;388.03;164.57;;;;;;;7.10;58.73;98991.72;335512;29;2916;-75
2023/03/06 00:17:27;;;;;;;390.17;165.65;;;;;;;7.12;58.93;98995.13;332134;29;3107;-75
2023/03/06 00:17:37;;;;;;;386.48;161.35;;;;;;;7.09;58.52;98995.22;333859;29;2688;-75
2023/03/06 00:17:47;;;;;;;381.17;157.10;;;;;;;7.10;58.58;98989.13;330050;29;5012;-75
2023/03/06 00:17:58;;;;;;;381.53;160.23;;;;;;;7.03;58.12;98990.25;332978;29;1365;-75
2023/03/06 00:18:09;;;;;;;383.58;163.93;;;;;;;7.08;58.50;98998.72;334492;29;929;-75
2023/03/06 00:18:19;;;;;;;382.23;163.20;;;;;;;7.06;58.17;99000.53;336711;29;1315;-75
2023/03/06 00:18:29;;;;;;;384.42;171.02;;;;;;;7.06;58.20;98998.78;334266;29;1206;-75
2023/03/06 00:18:42;;;;;;;382.30;168.20;;;;;;;7.06;58.09;99000.53;335397;29;1370;-75
2023/03/06 00:18:53;;;;;;;382.58;164.45;;;;;;;7.09;58.67;99003.88;337327;29;897;-75
2023/03/06 00:19:03;;;;;;;382.30;164.98;;;;;;;7.09;58.20;99001.28;333104;29;1591;-76
2023/03/06 00:19:15;;;;;;;382.48;164.90;;;;;;;7.06;58.30;98996.19;330007;29;1912;-76
2023/03/06 00:19:26;;;;;;;383.02;166.02;;;;;;;7.15;58.56;98995.00;328474;29;1792;-75
2023/03/06 00:19:36;;;;;;;385.30;167.02;;;;;;;7.13;58.72;98996.81;326892;30;1321;-76
2023/03/06 00:19:47;;;;;;;386.20;170.40;;;;;;;7.12;58.53;99000.31;325943;30;2222;-76
2023/03/06 00:19:57;;;;;;;385.73;172.77;;;;;;;7.09;58.43;99005.63;323114;30;2756;-76
2023/03/06 00:20:11;;;;;;;384.00;174.82;;;;;;;7.06;58.53;98998.78;323081;30;1317;-77
2023/03/06 00:20:22;;;;;;;385.90;177.98;;;;;;;7.05;58.44;98998.84;316725;30;846;-76
2023/03/06 00:20:32;;;;;;;385.33;173.07;;;;;;;7.06;58.56;99000.53;322494;30;1224;-76
2023/03/06 00:20:43;;;;;;;384.55;171.48;;;;;;;7.04;58.56;99000.59;322520;30;1224;-76
2023/03/06 00:20:53;;;;;;;383.60;169.00;;;;;;;7.04;58.18;98995.41;320821;30;953;-76
2023/03/06 00:21:07;;;;;;;382.80;164.50;;;;;;;7.07;58.23;98997.88;321537;30;1793;-76
2023/03/06 00:21:17;;;;;;;381.98;163.10;;;;;;;7.08;58.39;98999.59;320489;30;2382;-76
2023/03/06 00:21:28;;;;;;;384.77;167.37;;;;;;;7.00;58.34;98992.06;319521;30;2147;-76
2023/03/06 00:21:41;;;;;;;383.73;165.77;;;;;;;7.06;58.68;99005.75;318994;31;1208;-76
2023/03/06 00:21:51;;;;;;;382.15;163.27;;;;;;;7.06;58.34;99000.53;320657;30;1304;-76
2023/03/06 00:22:02;;;;;;;382.83;165.60;;;;;;;7.09;58.93;99001.28;321283;30;2753;-76
2023/03/06 00:22:12;;;;;;;383.25;168.60;;;;;;;7.09;58.64;99003.03;320521;30;2614;-76
2023/03/06 00:22:23;;;;;;;384.23;176.43;;;;;;;7.14;58.59;99004.56;317338;31;1446;-76
2023/03/06 00:22:34;;;;;;;379.95;169.45;;;;;;;7.12;58.27;99008.13;317147;31;1646;-76
2023/03/06 00:22:44;;;;;;;378.97;164.30;;;;;;;7.09;58.55;99000.44;315357;31;1337;-76
2023/03/06 00:22:55;;;;;;;377.08;153.80;;;;;;;7.09;58.68;98997.84;314702;31;2196;-76
2023/03/06 00:23:06;;;;;;;378.40;158.27;;;;;;;7.13;58.49;99004.63;314053;31;859;-76
2023/03/06 00:23:16;;;;;;;379.55;161.23;;;;;;;7.09;58.32;99008.25;314930;31;2640;-76
2023/03/06 00:23:27;;;;;;;379.70;163.90;;;;;;;7.05;58.71;98993.66;310944;31;3001;-76
2023/03/06 00:23:38;;;;;;;381.25;160.15;;;;;;;7.08;58.75;98998.72;310673;31;1155;-76
2023/03/06 00:23:48;;;;;;;380.53;159.70;;;;;;;7.09;58.45;99005.63;308637;31;3066;-76
2023/03/06 00:23:58;;;;;;;381.67;164.03;;;;;;;7.09;58.66;99005.63;308700;31;4151;-76
2023/03/06 00:24:09;;;;;;;382.33;170.77;;;;;;;7.08;58.33;98999.59;313886;31;1645;-76
2023/03/06 00:24:19;;;;;;;386.65;174.50;;;;;;;7.12;58.67;99000.31;312667;31;3379;-76
2023/03/06 00:24:29;;;;;;;386.70;174.83;;;;;;;7.09;58.52;98993.47;310244;31;3411;-76
2023/03/06 00:24:41;;;;;;;388.13;170.43;;;;;;;7.12;58.14;99000.31;306885;31;3439;-76
2023/03/06 00:24:52;;;;;;;381.60;160.15;;;;;;;7.13;58.10;99000.25;309618;31;1078;-76
2023/03/06 00:25:03;;;;;;;383.98;159.82;;;;;;;7.05;58.51;98998.84;308669;31;5257;-76
2023/03/06 00:25:15;;;;;;;383.80;166.27;;;;;;;7.06;58.30;98995.34;309220;31;5316;-76
2023/03/06 00:25:26;;;;;;;385.58;168.48;;;;;;;7.07;58.32;98997.88;307946;31;3992;-76
2023/03/06 00:25:37;;;;;;;383.70;166.75;;;;;;;7.07;58.81;99002.25;306782;32;5420;-77
2023/03/06 00:25:48;;;;;;;382.17;166.27;;;;;;;7.05;58.28;98998.84;307081;32;4355;-76
2023/03/06 00:25:58;;;;;;;378.70;163.70;;;;;;;7.03;58.55;99011.06;305159;31;4816;-76
2023/03/06 00:26:09;;;;;;;380.60;159.95;;;;;;;7.01;58.52;98995.50;305586;32;4991;-76
2023/03/06 00:26:19;;;;;;;386.67;167.93;;;;;;;6.96;58.60;98985.25;306569;32;4255;-76
2023/03/06 00:26:29;;;;;;;386.83;167.07;;;;;;;6.99;58.78;99000.75;302791;32;4485;-76
2023/03/06 00:26:40;;;;;;;384.70;167.63;;;;;;;7.00;58.62;99002.47;299243;32;5385;-76
2023/03/06 00:26:51;;;;;;;380.88;164.05;;;;;;;7.00;58.54;98997.25;303614;32;2347;-76
2023/03/06 00:27:01;;;;;;;380.80;163.38;;;;;;;7.07;58.42;98997.88;302844;32;2908;-75
2023/03/06 00:27:11;;;;;;;380.80;167.37;;;;;;;7.02;58.37;98999.81;301295;32;3401;-77
2023/03/06 00:27:24;;;;;;;384.77;165.00;;;;;;;7.03;58.46;98995.44;301845;32;2089;-77
2023/03/06 00:27:35;;;;;;;380.98;153.60;;;;;;;7.09;58.28;99003.03;298212;33;1074;-75
2023/03/06 00:27:45;;;;;;;377.20;151.07;;;;;;;7.08;58.34;98998.72;296098;33;6021;-77
2023/03/06 00:27:56;;;;;;;379.35;158.02;;;;;;;7.09;58.20;99000.44;290616;33;7205;-76
2023/03/06 00:28:06;;;;;;;384.47;164.00;;;;;;;7.04;58.47;98998.00;291301;33;3281;-77
2023/03/06 00:28:16;;;;;;;388.83;168.93;;;;;;;7.06;58.54;99003.16;289156;33;6464;-77
2023/03/06 00:28:29;;;;;;;385.90;168.10;;;;;;;7.07;58.59;98997.03;286851;34;5989;-76
2023/03/06 00:28:40;;;;;;;381.10;164.07;;;;;;;6.98;58.18;98993.84;288591;33;5729;-76
2023/03/06 00:28:50;;;;;;;377.40;160.60;;;;;;;7.05;58.36;99001.44;289021;34;2850;-76
2023/03/06 00:29:01;;;;;;;379.63;166.13;;;;;;;7.00;58.44;98997.25;282220;34;5960;-76
2023/03/06 00:29:11;;;;;;;381.60;170.38;;;;;;;7.00;58.47;98994.66;282108;34;4475;-77
2023/03/06 00:29:22;;;;;;;386.00;174.93;;;;;;;6.99;58.67;99000.75;282974;35;3341;-76
2023/03/06 00:29:32;;;;;;;385.92;168.82;;;;;;;7.01;58.45;99001.56;278677;35;5339;-76
2023/03/06 00:29:43;;;;;;;384.30;166.60;;;;;;;6.98;58.80;99004.25;274374;35;5903;-76
2023/03/06 00:29:57;;;;;;;380.92;163.40;;;;;;;6.98;58.63;99006.03;273109;36;4048;-76
2023/03/06 00:30:09;;;;;;;380.20;163.90;;;;;;;6.98;58.68;98999.06;272739;36;2479;-77
2023/03/06 00:30:21;;;;;;;380.88;161.65;;;;;;;6.98;58.61;98998.22;270818;36;2502;-77
2023/03/06 00:30:32;;;;;;;384.70;168.25;;;;;;;7.04;58.80;99002.34;268464;36;9508;-77
2023/03/06 00:30:42;;;;;;;382.53;166.43;;;;;;;7.01;58.38;99004.16;266819;36;9675;-77
2023/03/06 00:30:53;;;;;;;384.83;163.40;;;;;;;7.05;58.50;99004.03;266947;36;5027;-76
2023/03/06 00:32:27;;;;;;;372.56;155.85;;;;;;;7.06;58.98;98995.34;2491037;27;20258;-76
2023/03/06 00:32:37;;;;;;;379.52;161.73;;;;;;;7.08;58.35;99009.13;350469;28;4800;-76
2023/03/06 00:32:48;;;;;;;378.77;161.03;;;;;;;7.04;58.60;98999.75;348932;28;1112;-77
2023/03/06 00:32:58;;;;;;;379.53;161.50;;;;;;;7.04;58.39;99005.81;346300;28;4102;-76
2023/03/06 00:33:09;;;;;;;380.10;160.90;;;;;;;7.04;58.54;99004.94;346779;28;5015;-76
2023/03/06 00:33:19;;;;;;;382.03;165.33;;;;;;;7.07;58.71;99002.25;346299;28;4532;-76
2023/03/06 00:33:30;;;;;;;384.35;168.27;;;;;;;7.05;58.67;99001.44;346520;28;4621;-76
2023/03/06 00:33:42;;;;;;;385.97;172.40;;;;;;;7.07;58.74;98997.03;347788;28;3796;-76
2023/03/06 00:33:52;;;;;;;384.05;171.40;;;;;;;7.01;58.54;99004.16;345891;28;5012;-76
2023/03/06 00:34:03;;;;;;;381.93;172.07;;;;;;;7.07;58.42;99003.09;345380;28;4044;-76
2023/03/06 00:34:13;;;;;;;381.35;170.80;;;;;;;7.10;58.50;99007.34;347530;28;3381;-77
2023/03/06 00:34:24;;;;;;;378.92;163.73;;;;;;;7.09;58.83;98995.22;346643;28;3855;-75
2023/03/06 00:34:35;;;;;;;379.48;164.07;;;;;;;7.09;58.73;99000.44;348602;28;5213;-76
2023/03/06 00:34:48;;;;;;;380.37;163.07;;;;;;;7.06;58.73;99000.53;348148;28;5273;-75
2023/03/06 00:34:59;;;;;;;379.52;158.55;;;;;;;7.07;58.46;98999.63;350192;28;3914;-76
2023/03/06 00:35:10;;;;;;;382.73;158.17;;;;;;;7.04;58.45;98999.75;350259;28;4917;-75
2023/03/06 00:35:20;;;;;;;383.42;158.63;;;;;;;7.03;58.59;98995.44;349786;28;3920;-75
2023/03/06 00:35:30;;;;;;;387.02;162.60;;;;;;;7.06;58.43;98998.78;347163;28;4899;-75
2023/03/06 00:35:41;;;;;;;397.53;170.53;;;;;;;7.07;58.47;98997.88;348462;28;4043;-74
2023/03/06 00:35:51;;;;;;;396.75;169.13;;;;;;;7.06;58.29;99005.75;349361;28;4457;-78
2023/03/06 00:36:05;;;;;;;393.47;169.33;;;;;;;7.03;58.38;99003.25;349141;28;2906;-75
2023/03/06 00:36:15;;;;;;;382.92;167.05;;;;;;;6.97;59.16;99002.56;345983;28;5138;-75
2023/03/06 00:36:26;;;;;;;381.47;167.13;;;;;;;7.01;58.57;99005.91;346935;28;4809;-74
2023/03/06 00:36:36;;;;;;;383.52;173.25;;;;;;;7.01;58.67;99004.16;348243;28;989;-74
2023/03/06 00:36:47;;;;;;;381.90;168.30;;;;;;;7.00;58.75;99005.06;346696;28;4211;-74
2023/03/06 00:36:57;;;;;;;381.33;167.63;;;;;;;6.97;59.02;99005.16;350885;28;2849;-75
2023/03/06 00:37:07;;;;;;;382.03;169.47;;;;;;;6.99;58.79;99011.16;349250;28;4533;-74
2023/03/06 00:37:18;;;;;;;385.70;173.48;;;;;;;7.00;59.00;99012.88;347584;28;5232;-75
2023/03/06 00:37:28;;;;;;;384.27;169.32;;;;;;;7.01;59.34;99013.72;346450;28;4934;-75
2023/03/06 00:37:39;;;;;;;381.70;163.27;;;;;;;7.00;58.92;99007.66;346990;28;3095;-75
2023/03/06 00:37:49;;;;;;;378.02;160.60;;;;;;;7.04;59.44;99012.75;345335;28;4849;-76
2023/03/06 00:38:00;;;;;;;378.93;161.83;;;;;;;6.98;58.97;99004.25;346131;28;3202;-77
2023/03/06 00:38:11;;;;;;;380.75;162.05;;;;;;;6.97;59.25;99012.97;342403;28;4110;-75
2023/03/06 00:38:21;;;;;;;379.03;160.30;;;;;;;6.95;59.18;99006.97;344649;28;1418;-76
2023/03/06 00:38:34;;;;;;;374.98;153.07;;;;;;;6.93;59.62;99011.38;344005;28;4030;-75
2023/03/06 00:38:44;;;;;;;373.30;152.63;;;;;;;6.93;59.03;99000.16;345617;28;3014;-76
2023/03/06 00:38:55;;;;;;;372.73;154.07;;;;;;;6.90;59.50;99010.69;341312;28;4288;-75
2023/03/06 00:39:05;;;;;;;374.27;158.60;;;;;;;6.90;59.68;99014.13;343035;28;5392;-75
2023/03/06 00:39:15;;;;;;;374.27;154.80;;;;;;;6.90;59.33;99006.31;343253;28;1570;-75
2023/03/06 00:39:26;;;;;;;376.23;157.10;;;;;;;6.87;59.49;99000.38;341094;28;1355;-76
2023/03/06 00:39:36;;;;;;;378.17;156.97;;;;;;;6.93;59.50;99014.00;344294;28;821;-76
2023/03/06 00:39:48;;;;;;;378.15;160.18;;;;;;;6.93;59.18;99005.38;344632;28;1213;-75
2023/03/06 00:39:58;;;;;;;380.90;160.73;;;;;;;6.94;59.71;99018.28;346156;28;1004;-76
2023/03/06 00:40:12;;;;;;;381.05;158.65;;;;;;;6.92;59.44;99008.88;343586;28;1311;-76
2023/03/06 00:40:23;;;;;;;377.60;151.27;;;;;;;6.98;59.20;99009.47;343794;28;1331;-75
2023/03/06 00:40:33;;;;;;;375.53;151.63;;;;;;;6.99;59.47;99007.72;341750;28;1331;-75
2023/03/06 00:40:43;;;;;;;377.33;160.45;;;;;;;7.02;59.12;99012.81;339188;29;1388;-76
2023/03/06 00:40:54;;;;;;;376.90;160.33;;;;;;;7.06;59.15;99016.16;337738;28;1378;-76
2023/03/06 00:41:10;;;;;;;375.90;153.77;;;;;;;7.04;59.20;99012.75;336607;29;1448;-76
2023/03/06 00:41:21;;;;;;;379.85;162.30;;;;;;;7.08;59.06;99009.13;334661;29;1924;-76
2023/03/06 00:41:31;;;;;;;381.83;173.10;;;;;;;7.03;59.00;99017.09;335996;29;1248;-76
2023/03/06 00:41:42;;;;;;;381.33;171.50;;;;;;;7.04;59.24;99013.59;339347;29;1200;-75
2023/03/06 00:41:52;;;;;;;380.05;162.00;;;;;;;7.03;59.44;99008.47;340611;29;1336;-77
2023/03/06 00:42:03;;;;;;;379.90;161.13;;;;;;;7.03;59.06;99006.72;338934;29;1350;-77
2023/03/06 00:42:13;;;;;;;377.42;158.80;;;;;;;7.01;59.11;99000.72;336704;29;1337;-76
2023/03/06 00:42:24;;;;;;;378.53;163.57;;;;;;;7.00;58.90;99010.25;334466;29;1832;-76
2023/03/06 00:42:34;;;;;;;376.88;159.35;;;;;;;7.00;59.54;99007.66;335510;29;1678;-76
2023/03/06 00:42:45;;;;;;;375.48;157.50;;;;;;;6.99;59.36;99010.31;337136;29;1168;-77
2023/03/06 00:42:55;;;;;;;373.17;155.83;;;;;;;6.96;59.23;99005.22;336263;29;1385;-76
2023/03/06 00:43:05;;;;;;;375.05;156.07;;;;;;;6.95;59.46;99009.56;331317;29;1871;-77
2023/03/06 00:43:16;;;;;;;380.67;164.77;;;;;;;6.95;59.37;99012.19;329014;29;2130;-77
2023/03/06 00:43:26;;;;;;;380.92;163.90;;;;;;;6.98;59.31;99009.47;327974;30;907;-76
2023/03/06 00:43:37;;;;;;;381.63;165.17;;;;;;;6.96;59.16;99000.88;330127;29;1752;-76
2023/03/06 00:43:47;;;;;;;381.02;161.55;;;;;;;6.95;59.26;99012.19;331816;29;822;-76
2023/03/06 00:43:57;;;;;;;379.37;155.17;;;;;;;6.95;59.51;99019.97;331694;29;875;-76
2023/03/06 00:44:08;;;;;;;378.83;150.77;;;;;;;6.94;59.17;99013.09;329666;29;1061;-76
2023/03/06 00:44:18;;;;;;;378.23;149.25;;;;;;;6.96;59.59;99007.81;327211;30;1858;-76
2023/03/06 00:44:28;;;;;;;379.30;154.87;;;;;;;6.97;59.51;99015.56;326804;30;982;-76
2023/03/06 00:44:39;;;;;;;380.55;161.65;;;;;;;6.95;59.37;99006.97;324032;30;1940;-76
2023/03/06 00:44:49;;;;;;;380.20;162.30;;;;;;;7.00;59.58;99018.06;322685;30;2326;-76
2023/03/06 00:45:00;;;;;;;380.35;166.15;;;;;;;6.98;59.35;99014.66;324565;30;926;-77
2023/03/06 00:45:10;;;;;;;378.20;163.57;;;;;;;6.99;59.50;99015.53;323319;30;1395;-76
2023/03/06 00:45:21;;;;;;;378.48;163.98;;;;;;;6.98;59.42;99016.44;326233;30;2482;-76
2023/03/06 00:45:31;;;;;;;379.73;162.03;;;;;;;6.98;59.68;99017.28;324165;30;2365;-76
2023/03/06 00:45:42;;;;;;;383.08;165.65;;;;;;;6.99;59.61;99015.53;320716;30;1163;-76
2023/03/06 00:45:52;;;;;;;381.93;166.30;;;;;;;7.00;59.43;99020.66;324232;30;1843;-76
2023/03/06 00:46:04;;;;;;;382.25;165.55;;;;;;;7.01;59.38;99014.56;322211;30;1574;-76
2023/03/06 00:46:14;;;;;;;380.20;162.02;;;;;;;7.06;59.63;99018.75;319503;30;1338;-76
2023/03/06 00:46:25;;;;;;;380.50;156.97;;;;;;;7.06;59.48;99016.16;318248;30;1833;-76
2023/03/06 00:46:35;;;;;;;379.60;158.50;;;;;;;7.00;59.33;99006.81;316179;30;2249;-76
2023/03/06 00:46:45;;;;;;;378.97;160.57;;;;;;;7.00;59.29;99012.00;314426;31;3665;-76
2023/03/06 00:46:56;;;;;;;377.58;161.45;;;;;;;7.03;59.68;99011.91;316309;31;846;-76
2023/03/06 00:47:06;;;;;;;377.27;159.30;;;;;;;7.01;59.28;99014.56;317477;30;2675;-76
2023/03/06 00:47:17;;;;;;;377.38;155.82;;;;;;;7.01;59.73;99016.31;317387;31;2784;-76
2023/03/06 00:47:27;;;;;;;379.37;157.03;;;;;;;7.01;59.53;99019.78;315079;31;1212;-76
2023/03/06 00:47:38;;;;;;;377.15;155.63;;;;;;;7.05;59.61;99014.44;306470;31;4055;-76
2023/03/06 00:47:48;;;;;;;378.23;161.03;;;;;;;7.03;59.68;99016.25;301990;32;5235;-76
2023/03/06 00:47:58;;;;;;;376.38;160.57;;;;;;;7.02;59.27;99018.00;305139;32;2884;-76
2023/03/06 00:48:09;;;;;;;381.73;163.73;;;;;;;6.95;59.27;99014.78;303461;32;2620;-76
2023/03/06 00:48:19;;;;;;;381.05;161.80;;;;;;;6.92;59.64;99011.47;303232;32;3295;-76
2023/03/06 00:48:31;;;;;;;382.40;164.27;;;;;;;6.99;59.69;99016.38;303231;32;1223;-76
2023/03/06 00:48:42;;;;;;;381.90;164.60;;;;;;;7.03;59.66;99016.25;299574;32;4017;-75
2023/03/06 00:48:52;;;;;;;382.58;161.98;;;;;;;6.97;59.46;99012.97;297720;32;4361;-76
2023/03/06 00:49:03;;;;;;;379.37;158.90;;;;;;;6.92;59.83;99014.91;295442;32;3940;-78
2023/03/06 00:49:13;;;;;;;382.35;165.48;;;;;;;6.90;59.79;99011.53;299599;32;1646;-77
2023/03/06 00:49:23;;;;;;;383.47;169.07;;;;;;;6.95;60.00;99014.78;301186;32;4249;-76
2023/03/06 00:49:34;;;;;;;384.38;167.50;;;;;;;6.97;60.46;99020.78;298138;32;3852;-76
2023/03/06 00:49:44;;;;;;;380.30;159.13;;;;;;;6.95;59.98;99014.78;295877;33;4769;-77
2023/03/06 00:49:55;;;;;;;379.63;159.63;;;;;;;6.98;60.10;99014.66;296367;33;4730;-77
2023/03/06 00:50:05;;;;;;;382.57;162.47;;;;;;;6.98;59.93;99016.44;297395;32;4684;-77
2023/03/06 00:50:16;;;;;;;382.30;162.95;;;;;;;6.99;59.49;99013.78;295579;32;3261;-77
2023/03/06 00:50:26;;;;;;;384.95;163.82;;;;;;;7.01;59.96;99011.97;293225;33;3248;-77
2023/03/06 00:50:37;;;;;;;383.00;165.30;;;;;;;7.03;59.77;99016.25;292321;33;3185;-76
2023/03/06 00:50:47;;;;;;;381.50;162.95;;;;;;;6.92;59.73;99008.88;290809;33;4884;-76
2023/03/06 00:50:58;;;;;;;378.40;161.37;;;;;;;6.92;59.86;99020.13;291686;33;2894;-77
2023/03/06 00:51:08;;;;;;;379.00;163.00;;;;;;;6.89;59.80;99008.97;295686;33;4826;-77
2023/03/06 00:51:20;;;;;;;382.37;171.33;;;;;;;6.91;60.00;99014.97;291114;33;5885;-77
2023/03/06 00:51:30;;;;;;;382.30;170.88;;;;;;;6.89;59.68;99012.44;286852;33;7146;-77
2023/03/06 00:51:41;;;;;;;377.05;160.90;;;;;;;6.86;59.62;99016.88;288194;34;4125;-77
2023/03/06 00:51:51;;;;;;;378.17;158.30;;;;;;;6.80;59.90;99010.16;282219;34;5689;-76
2023/03/06 00:52:02;;;;;;;380.63;162.27;;;;;;;6.84;60.23;99006.53;279053;35;6588;-77
2023/03/06 00:52:13;;;;;;;384.67;170.50;;;;;;;6.83;60.05;99020.44;279737;35;3365;-77
2023/03/06 00:52:23;;;;;;;383.48;166.68;;;;;;;6.85;60.05;99016.03;279420;35;6343;-76
2023/03/06 00:52:33;;;;;;;382.05;162.02;;;;;;;6.85;60.14;99012.59;279440;35;4860;-76
2023/03/06 00:52:44;;;;;;;378.97;153.43;;;;;;;6.88;60.19;99008.13;276680;35;4777;-77
2023/03/06 00:52:54;;;;;;;373.40;148.88;;;;;;;6.89;59.95;99009.81;272152;35;4117;-76
2023/03/06 00:53:05;;;;;;;375.53;154.00;;;;;;;6.89;60.12;99019.38;273560;35;6237;-76
2023/03/06 00:53:15;;;;;;;378.67;161.77;;;;;;;6.89;60.21;99015.03;273840;36;2479;-76
2023/03/06 00:53:25;;;;;;;383.33;171.30;;;;;;;6.86;59.74;99015.13;273054;36;3124;-76
2023/03/06 00:53:36;;;;;;;380.67;166.47;;;;;;;6.88;59.87;99013.34;273207;35;13258;-76